createdAt,value
2022-07-26T00:02:04.673Z,99887.63
2022-07-26T00:04:32.761Z,99886.08
2022-07-26T00:07:00.593Z,99886.05
2022-07-26T00:09:28.431Z,99886.81
2022-07-26T00:11:56.424Z,99885.42
2022-07-26T00:14:24.509Z,99884.66
2022-07-26T00:16:52.385Z,99879.41
2022-07-26T00:19:20.242Z,99877.92
2022-07-26T00:21:48.738Z,99870.81
2022-07-26T00:24:16.578Z,99869.73
2022-07-26T00:26:44.347Z,99861.02
2022-07-26T00:29:12.236Z,99856.73
2022-07-26T00:31:40.245Z,99859.13
2022-07-26T00:34:08.171Z,99860.67
2022-07-26T00:36:36.157Z,99857.40
2022-07-26T00:39:09.281Z,99857.28
2022-07-26T00:41:37.609Z,99866.45
2022-07-26T00:44:05.986Z,99864.09
2022-07-26T00:46:33.778Z,99856.35
2022-07-26T00:49:01.840Z,99851.45
2022-07-26T00:51:30.027Z,99855.33
2022-07-26T00:53:57.933Z,99856.48
2022-07-26T00:56:26.828Z,99850.60
2022-07-26T00:58:54.536Z,99853.27
2022-07-26T01:01:22.274Z,99852.81
2022-07-26T01:03:54.516Z,99863.23
2022-07-26T01:06:27.330Z,99860.21
2022-07-26T01:08:55.772Z,99854.16
2022-07-26T01:11:23.654Z,99859.38
2022-07-26T01:13:51.950Z,99864.01
2022-07-26T01:16:20.098Z,99869.92
2022-07-26T01:18:47.830Z,99878.33
2022-07-26T01:21:15.941Z,99874.98
2022-07-26T01:23:44.504Z,99870.62
2022-07-26T01:26:12.653Z,99869.45
2022-07-26T01:28:42.776Z,99867.05
2022-07-26T01:31:10.730Z,99882.38
2022-07-26T01:33:38.671Z,99941.93
2022-07-26T01:36:06.534Z,99920.52
2022-07-26T01:38:34.878Z,99939.73
2022-07-26T01:41:02.706Z,99933.50
2022-07-26T01:43:30.607Z,99943.65
2022-07-26T01:45:58.416Z,99933.30
2022-07-26T01:48:26.464Z,99940.88
2022-07-26T01:50:54.422Z,99930.20
2022-07-26T01:53:22.547Z,99942.23
2022-07-26T01:55:50.587Z,99933.44
2022-07-26T01:58:18.819Z,99934.09
2022-07-26T02:00:46.768Z,99938.81
2022-07-26T02:03:14.968Z,99949.59
2022-07-26T02:05:42.730Z,99967.59
2022-07-26T02:08:11.729Z,99972.71
2022-07-26T02:10:59.194Z,99972.85
2022-07-26T02:13:35.777Z,99979.52
2022-07-26T02:16:05.755Z,99984.51
2022-07-26T02:18:34.432Z,99985.62
2022-07-26T02:21:02.610Z,99992.61
2022-07-26T02:23:30.708Z,99999.23
2022-07-26T02:25:58.592Z,100000.30
2022-07-26T02:28:28.190Z,100003.48
2022-07-26T02:30:55.998Z,100007.05
2022-07-26T02:33:24.896Z,100003.66
2022-07-26T02:35:52.599Z,100003.27
2022-07-26T02:38:20.262Z,99996.58
2022-07-26T02:40:50.618Z,99997.16
2022-07-26T02:43:18.529Z,100002.97
2022-07-26T02:46:01.881Z,100012.63
2022-07-26T02:48:31.557Z,100024.51
2022-07-26T02:51:00.087Z,100025.08
2022-07-26T02:53:28.424Z,100032.35
2022-07-26T02:55:56.088Z,100034.64
2022-07-26T02:58:25.256Z,100046.25
2022-07-26T03:00:53.151Z,100054.40
2022-07-26T03:03:20.924Z,100058.14
2022-07-26T03:05:48.960Z,100059.13
2022-07-26T03:08:16.986Z,100066.86
2022-07-26T03:10:45.029Z,100067.44
2022-07-26T03:13:13.033Z,100081.07
2022-07-26T03:15:41.085Z,100083.14
2022-07-26T03:18:08.869Z,100081.02
2022-07-26T03:20:36.829Z,100080.15
2022-07-26T03:23:04.646Z,100085.22
2022-07-26T03:25:32.441Z,100091.93
2022-07-26T03:28:05.738Z,100093.48
2022-07-26T03:30:33.702Z,100088.84
2022-07-26T03:33:01.665Z,100085.38
2022-07-26T03:35:29.390Z,100085.67
2022-07-26T03:37:57.063Z,100109.13
2022-07-26T03:40:25.008Z,100124.02
2022-07-26T03:42:52.822Z,100111.49
2022-07-26T03:45:20.755Z,100106.95
2022-07-26T03:47:48.668Z,100099.21
2022-07-26T03:50:16.567Z,100101.96
2022-07-26T03:52:44.405Z,100120.73
2022-07-26T03:55:30.742Z,100114.96
2022-07-26T03:57:59.075Z,100113.52
2022-07-26T04:00:26.952Z,100117.84
2022-07-26T04:02:54.783Z,100143.73
2022-07-26T04:05:23.718Z,100166.56
2022-07-26T04:07:53.129Z,100167.91
2022-07-26T04:10:22.643Z,100144.39
2022-07-26T04:12:50.607Z,100143.61
2022-07-26T04:15:20.129Z,100159.51
2022-07-26T04:17:48.793Z,100170.09
2022-07-26T04:20:17.003Z,100171.55
2022-07-26T04:22:45.997Z,100177.05
2022-07-26T04:25:13.856Z,100189.19
2022-07-26T04:27:41.699Z,100194.02
2022-07-26T04:30:14.706Z,100192.88
2022-07-26T04:32:45.848Z,100186.48
2022-07-26T04:35:15.603Z,100180.38
2022-07-26T04:37:45.394Z,100174.58
2022-07-26T04:40:21.045Z,100185.73
2022-07-26T04:42:51.024Z,100188.63
2022-07-26T04:45:19.484Z,100185.17
2022-07-26T04:47:50.365Z,100186.79
2022-07-26T04:50:19.846Z,100190.36
2022-07-26T04:52:49.262Z,100196.31
2022-07-26T04:55:17.987Z,100195.59
2022-07-26T04:57:47.687Z,100204.42
2022-07-26T05:00:22.990Z,100209.25
2022-07-26T05:02:54.584Z,100209.30
2022-07-26T05:05:23.104Z,100206.17
2022-07-26T05:07:56.515Z,100207.96
2022-07-26T05:10:35.407Z,100211.13
2022-07-26T05:13:05.410Z,100217.73
2022-07-26T05:15:35.047Z,100222.35
2022-07-26T05:18:10.687Z,100225.36
2022-07-26T05:20:41.277Z,100222.79
2022-07-26T05:23:09.660Z,100222.14
2022-07-26T05:25:38.816Z,100219.84
2022-07-26T05:28:06.572Z,100214.22
2022-07-26T05:30:34.300Z,100220.02
2022-07-26T05:33:02.188Z,100224.52
2022-07-26T05:35:29.955Z,100224.91
2022-07-26T05:37:57.713Z,100230.92
2022-07-26T05:40:25.522Z,100239.21
2022-07-26T05:42:53.280Z,100239.48
2022-07-26T05:45:20.990Z,100245.00
2022-07-26T05:47:52.641Z,100246.90
2022-07-26T05:50:20.364Z,100253.91
2022-07-26T05:52:48.239Z,100262.54
2022-07-26T05:55:15.996Z,100265.36
2022-07-26T05:57:47.488Z,100267.27
2022-07-26T06:00:18.126Z,100277.23
2022-07-26T06:02:45.945Z,100285.02
2022-07-26T06:05:15.974Z,100288.34
2022-07-26T06:07:44.013Z,100289.41
2022-07-26T06:10:12.215Z,100294.52
2022-07-26T06:12:40.449Z,100300.39
2022-07-26T06:15:15.048Z,100303.30
2022-07-26T06:17:43.722Z,100310.23
2022-07-26T06:20:11.888Z,100307.66
2022-07-26T06:22:39.866Z,100316.06
2022-07-26T06:25:08.257Z,100320.23
2022-07-26T06:27:36.266Z,100322.23
2022-07-26T06:30:05.211Z,100323.47
2022-07-26T06:32:33.021Z,100332.86
2022-07-26T06:35:00.979Z,100339.66
2022-07-26T06:37:28.790Z,100341.86
2022-07-26T06:39:56.497Z,100341.62
2022-07-26T06:42:25.152Z,100344.41
2022-07-26T06:44:52.846Z,100349.90
2022-07-26T06:47:20.493Z,100342.93
2022-07-26T06:49:48.282Z,100342.67
2022-07-26T06:52:16.102Z,100346.91
2022-07-26T06:54:43.999Z,100346.19
2022-07-26T06:57:11.990Z,100341.58
2022-07-26T06:59:39.703Z,100344.25
2022-07-26T07:02:07.480Z,100346.23
2022-07-26T07:04:35.874Z,100343.79
2022-07-26T07:07:06.057Z,100342.91
2022-07-26T07:09:35.997Z,100345.41
2022-07-26T07:12:08.578Z,100347.02
2022-07-26T07:14:39.391Z,100346.33
2022-07-26T07:17:12.219Z,100344.39
2022-07-26T07:19:42.018Z,100344.20
2022-07-26T07:22:12.300Z,100339.92
2022-07-26T07:24:41.791Z,100347.32
2022-07-26T07:27:10.802Z,100347.64
2022-07-26T07:29:41.192Z,100357.13
2022-07-26T07:32:18.417Z,100353.05
2022-07-26T07:34:48.834Z,100353.05
2022-07-26T07:37:18.179Z,100354.79
2022-07-26T07:39:50.263Z,100358.21
2022-07-26T07:42:19.629Z,100356.94
2022-07-26T07:44:48.125Z,100358.29
2022-07-26T07:47:15.928Z,100363.42
2022-07-26T07:49:43.760Z,100365.01
2022-07-26T07:52:11.483Z,100370.47
2022-07-26T07:54:40.014Z,100368.13
2022-07-26T07:57:10.604Z,100371.70
2022-07-26T07:59:39.402Z,100371.89
2022-07-26T08:02:07.785Z,100372.83
2022-07-26T08:04:35.959Z,100370.89
2022-07-26T08:07:03.793Z,100367.42
2022-07-26T08:09:33.901Z,100362.39
2022-07-26T08:12:02.900Z,100364.59
2022-07-26T08:14:30.904Z,100366.29
2022-07-26T08:16:59.043Z,100368.94
2022-07-26T08:19:29.285Z,100367.46
2022-07-26T08:22:10.971Z,100367.05
2022-07-26T08:24:39.725Z,100371.31
2022-07-26T08:27:07.718Z,100370.05
2022-07-26T08:29:35.579Z,100373.67
2022-07-26T08:32:04.183Z,100378.45
2022-07-26T08:34:32.519Z,100379.73
2022-07-26T08:37:16.418Z,100382.57
2022-07-26T08:39:46.693Z,100387.13
2022-07-26T08:42:16.424Z,100387.03
2022-07-26T08:44:48.263Z,100388.56
2022-07-26T08:47:35.455Z,100395.60
2022-07-26T08:50:07.413Z,100395.38
2022-07-26T08:52:35.210Z,100395.23
2022-07-26T08:55:03.079Z,100398.74
2022-07-26T08:57:30.768Z,100400.46
2022-07-26T09:00:20.702Z,100408.34
2022-07-26T09:02:49.170Z,100408.50
2022-07-26T09:05:19.783Z,100410.15
2022-07-26T09:07:47.517Z,100411.43
2022-07-26T09:10:15.822Z,100412.85
2022-07-26T09:12:44.676Z,100409.80
2022-07-26T09:15:21.651Z,100407.70
2022-07-26T09:17:53.101Z,100405.46
2022-07-26T09:20:29.851Z,100404.55
2022-07-26T09:23:05.564Z,100405.73
2022-07-26T09:25:45.009Z,100401.98
2022-07-26T09:28:28.809Z,100398.98
2022-07-26T09:31:03.250Z,100398.39
2022-07-26T09:33:45.665Z,100398.39
2022-07-26T09:36:13.829Z,100394.18
2022-07-26T09:38:45.064Z,100395.15
2022-07-26T09:41:30.387Z,100401.55
2022-07-26T09:44:04.264Z,100397.77
2022-07-26T09:46:35.589Z,100401.11
2022-07-26T09:49:20.678Z,100403.40
2022-07-26T09:51:51.103Z,100403.73
2022-07-26T09:54:39.463Z,100403.22
2022-07-26T09:57:07.441Z,100406.15
2022-07-26T09:59:35.214Z,100402.38
2022-07-26T10:02:03.361Z,100404.44
2022-07-26T10:04:31.249Z,100402.92
2022-07-26T10:06:59.035Z,100399.58
2022-07-26T10:09:37.445Z,100394.80
2022-07-26T10:12:08.884Z,100398.30
2022-07-26T10:14:37.364Z,100404.02
2022-07-26T10:17:30.916Z,100408.21
2022-07-26T10:20:17.628Z,100406.37
2022-07-26T10:22:52.184Z,100406.54
2022-07-26T10:25:20.182Z,100408.98
2022-07-26T10:27:57.845Z,100411.14
2022-07-26T10:30:34.920Z,100413.45
2022-07-26T10:33:10.263Z,100409.43
2022-07-26T10:35:41.123Z,100412.70
2022-07-26T10:38:29.537Z,100412.16
2022-07-26T10:41:03.164Z,100424.58
2022-07-26T10:43:40.630Z,100423.61
2022-07-26T10:46:18.586Z,100418.98
2022-07-26T10:48:55.573Z,100414.67
2022-07-26T10:51:32.181Z,100410.17
2022-07-26T10:54:04.690Z,100417.13
2022-07-26T10:56:33.587Z,100407.42
2022-07-26T10:59:03.337Z,100414.95
2022-07-26T11:01:35.651Z,100411.98
2022-07-26T11:04:04.008Z,100408.22
2022-07-26T11:06:32.535Z,100406.08
2022-07-26T11:09:10.703Z,100406.26
2022-07-26T11:11:39.463Z,100412.34
2022-07-26T11:14:16.896Z,100413.91
2022-07-26T11:16:50.511Z,100411.67
2022-07-26T11:19:20.988Z,100414.27
2022-07-26T11:22:01.071Z,100408.50
2022-07-26T11:24:29.504Z,100405.20
2022-07-26T11:27:03.985Z,100410.79
2022-07-26T11:29:38.985Z,100411.76
2022-07-26T11:32:24.718Z,100413.41
2022-07-26T11:35:03.651Z,100412.30
2022-07-26T11:37:31.719Z,100416.68
2022-07-26T11:39:59.508Z,100413.77
2022-07-26T11:42:27.380Z,100411.73
2022-07-26T11:44:55.434Z,100408.62
2022-07-26T11:47:25.353Z,100410.71
2022-07-26T11:50:16.444Z,100408.39
2022-07-26T11:52:43.220Z,100404.77
2022-07-26T11:55:10.938Z,100403.89
2022-07-26T11:57:38.630Z,100402.89
2022-07-26T12:00:07.306Z,100405.03
2022-07-26T12:02:35.065Z,100402.84
2022-07-26T12:05:17.862Z,100397.23
2022-07-26T12:07:57.981Z,100392.35
2022-07-26T12:10:27.304Z,100394.95
2022-07-26T12:13:12.880Z,100391.42
2022-07-26T12:15:50.356Z,100391.63
2022-07-26T12:18:36.820Z,100388.84
2022-07-26T12:21:08.863Z,100384.52
2022-07-26T12:23:43.899Z,100387.38
2022-07-26T12:26:26.171Z,100394.48
2022-07-26T12:28:55.826Z,100393.33
2022-07-26T12:31:29.521Z,100392.61
2022-07-26T12:33:58.596Z,100391.92
2022-07-26T12:36:29.527Z,100393.17
2022-07-26T12:39:01.399Z,100389.58
2022-07-26T12:41:33.763Z,100386.55
2022-07-26T12:44:01.537Z,100387.80
2022-07-26T12:46:35.190Z,100389.45
2022-07-26T12:49:05.107Z,100388.27
2022-07-26T12:51:33.549Z,100387.83
2022-07-26T12:54:01.342Z,100390.60
2022-07-26T12:56:29.303Z,100388.19
2022-07-26T12:59:01.363Z,100387.23
2022-07-26T13:01:31.632Z,100386.41
2022-07-26T13:04:00.094Z,100383.92
2022-07-26T13:06:28.072Z,100387.91
2022-07-26T13:08:56.757Z,100386.17
2022-07-26T13:11:25.150Z,100389.63
2022-07-26T13:13:53.203Z,100388.64
2022-07-26T13:16:21.122Z,100386.78
2022-07-26T13:18:49.066Z,100384.47
2022-07-26T13:21:16.792Z,100381.15
2022-07-26T13:23:44.468Z,100384.11
2022-07-26T13:26:12.521Z,100383.96
2022-07-26T13:28:40.747Z,100384.48
2022-07-26T13:31:09.220Z,100383.69
2022-07-26T13:33:39.336Z,100386.06
2022-07-26T13:36:07.391Z,100380.94
2022-07-26T13:38:35.505Z,100378.88
2022-07-26T13:41:03.837Z,100385.04
2022-07-26T13:43:31.896Z,100387.43
2022-07-26T13:45:59.685Z,100388.73
2022-07-26T13:48:28.141Z,100390.08
2022-07-26T13:50:57.588Z,100386.12
2022-07-26T13:53:25.798Z,100387.19
2022-07-26T13:55:53.518Z,100385.96
2022-07-26T13:58:21.681Z,100384.14
2022-07-26T14:00:49.893Z,100381.73
2022-07-26T14:03:17.916Z,100379.20
2022-07-26T14:05:46.086Z,100383.59
2022-07-26T14:08:14.094Z,100386.09
2022-07-26T14:10:42.138Z,100390.23
2022-07-26T14:13:09.982Z,100392.41
2022-07-26T14:15:37.798Z,100392.79
2022-07-26T14:18:05.660Z,100395.08
2022-07-26T14:20:33.521Z,100393.08
2022-07-26T14:23:01.255Z,100388.53
2022-07-26T14:25:28.909Z,100385.38
2022-07-26T14:27:56.600Z,100379.08
2022-07-26T14:30:24.459Z,100381.64
2022-07-26T14:32:52.212Z,100385.52
2022-07-26T14:35:20.061Z,100392.34
2022-07-26T14:37:47.694Z,100389.52
2022-07-26T14:40:16.863Z,100385.47
2022-07-26T14:42:46.154Z,100388.58
2022-07-26T14:45:14.999Z,100386.77
2022-07-26T14:47:43.159Z,100386.27
2022-07-26T14:50:12.356Z,100382.82
2022-07-26T14:52:42.615Z,100382.27
2022-07-26T14:55:10.560Z,100378.23
2022-07-26T14:57:40.154Z,100381.17
2022-07-26T15:00:15.068Z,100379.60
2022-07-26T15:02:45.221Z,100380.41
2022-07-26T15:05:14.477Z,100377.45
2022-07-26T15:07:43.489Z,100374.70
2022-07-26T15:10:13.467Z,100373.04
2022-07-26T15:12:42.080Z,100372.94
2022-07-26T15:15:11.259Z,100372.63
2022-07-26T15:17:39.287Z,100370.30
2022-07-26T15:20:07.829Z,100372.52
2022-07-26T15:22:35.815Z,100380.55
2022-07-26T15:25:03.835Z,100375.83
2022-07-26T15:27:31.626Z,100375.77
2022-07-26T15:30:04.394Z,100376.84
2022-07-26T15:32:34.813Z,100378.02
2022-07-26T15:35:04.127Z,100376.56
2022-07-26T15:37:31.894Z,100377.98
2022-07-26T15:40:00.626Z,100383.69
2022-07-26T15:42:32.296Z,100379.67
2022-07-26T15:45:03.817Z,100379.98
2022-07-26T15:48:01.015Z,100377.05
2022-07-26T15:50:27.169Z,100379.73
2022-07-26T15:52:54.818Z,100376.21
2022-07-26T15:55:22.530Z,100373.84
2022-07-26T15:57:50.354Z,100376.89
2022-07-26T16:00:18.464Z,100378.05
2022-07-26T16:02:46.322Z,100374.83
2022-07-26T16:05:14.654Z,100376.25
2022-07-26T16:07:43.808Z,100375.25
2022-07-26T16:10:13.520Z,100374.27
2022-07-26T16:12:42.234Z,100372.95
2022-07-26T16:15:11.946Z,100375.11
2022-07-26T16:17:40.130Z,100378.80
2022-07-26T16:20:09.330Z,100375.81
2022-07-26T16:22:41.364Z,100373.70
2022-07-26T16:25:12.667Z,100376.06
2022-07-26T16:27:42.937Z,100377.91
2022-07-26T16:30:13.019Z,100380.33
2022-07-26T16:32:41.576Z,100378.77
2022-07-26T16:35:09.730Z,100377.79
2022-07-26T16:37:37.543Z,100380.73
2022-07-26T16:52:05.954Z,100416.52
2022-07-26T16:54:34.093Z,100437.52
2022-07-26T16:57:01.804Z,100450.42
2022-07-26T16:59:29.581Z,100457.41
2022-07-26T17:02:01.596Z,100463.41
2022-07-26T17:04:30.830Z,100475.61
2022-07-26T17:07:23.431Z,100480.05
2022-07-26T17:09:46.159Z,100479.04
2022-07-26T17:12:13.867Z,100487.81
2022-07-26T17:14:41.812Z,100489.68
2022-07-26T17:17:09.728Z,100496.04
2022-07-26T17:19:37.477Z,100500.98
2022-07-26T17:22:05.405Z,100500.60
2022-07-26T17:24:33.389Z,100510.89
2022-07-26T17:27:01.364Z,100507.70
2022-07-26T17:29:29.254Z,100514.18
2022-07-26T17:31:57.316Z,100518.21
2022-07-26T17:34:25.053Z,100524.21
2022-07-26T17:37:00.685Z,100525.50
2022-07-26T17:39:50.765Z,100524.45
2022-07-26T17:42:18.342Z,100523.62
2022-07-26T17:44:46.182Z,100522.95
2022-07-26T17:47:27.909Z,100524.25
2022-07-26T17:50:34.789Z,100522.88
2022-07-26T17:52:50.894Z,100517.59
2022-07-26T17:55:19.690Z,100510.34
2022-07-26T17:57:49.646Z,100510.16
2022-07-26T18:00:20.083Z,100510.08
2022-07-26T18:02:48.732Z,100507.77
2022-07-26T18:05:18.436Z,100501.57
2022-07-26T18:07:46.677Z,100504.02
2022-07-26T18:10:14.639Z,100499.95
2022-07-26T18:12:42.600Z,100500.63
2022-07-26T18:15:11.004Z,100502.02
2022-07-26T18:17:39.191Z,100501.38
2022-07-26T18:20:08.227Z,100505.04
2022-07-26T18:22:36.260Z,100500.97
2022-07-26T18:25:05.585Z,100504.71
2022-07-26T18:27:34.056Z,100509.63
2022-07-26T18:30:02.826Z,100506.68
2022-07-26T18:32:30.667Z,100514.49
2022-07-26T18:34:58.573Z,100517.27
2022-07-26T18:37:26.263Z,100519.90
2022-07-26T18:39:57.784Z,100522.03
2022-07-26T18:42:27.134Z,100521.92
2022-07-26T18:44:54.818Z,100527.48
2022-07-26T18:47:22.817Z,100533.48
2022-07-26T18:49:50.828Z,100539.98
2022-07-26T18:52:28.253Z,100544.38
2022-07-26T18:55:02.755Z,100545.40
2022-07-26T18:57:30.554Z,100549.30
2022-07-26T18:59:58.540Z,100556.79
2022-07-26T19:02:26.384Z,100555.23
2022-07-26T19:04:54.224Z,100560.19
2022-07-26T19:07:22.286Z,100563.39
2022-07-26T19:09:52.665Z,100569.10
2022-07-26T19:12:24.235Z,100577.05
2022-07-26T19:14:52.032Z,100584.33
2022-07-26T19:17:21.504Z,100587.69
2022-07-26T19:19:49.371Z,100595.86
2022-07-26T19:22:17.155Z,100596.30
2022-07-26T19:24:44.871Z,100596.48
2022-07-26T19:27:15.077Z,100596.47
2022-07-26T19:29:42.985Z,100591.50
2022-07-26T19:32:10.708Z,100590.24
2022-07-26T19:34:38.483Z,100596.82
2022-07-26T19:37:06.537Z,100600.89
2022-07-26T19:39:34.244Z,100606.38
2022-07-26T19:42:01.950Z,100607.80
2022-07-26T19:44:29.723Z,100612.40
2022-07-26T19:46:58.133Z,100607.98
2022-07-26T19:49:26.302Z,100612.91
2022-07-26T19:51:54.351Z,100614.01
2022-07-26T19:54:22.401Z,100612.96
2022-07-26T19:56:50.233Z,100604.84
2022-07-26T19:59:22.982Z,100607.13
2022-07-26T20:01:53.102Z,100602.16
2022-07-26T20:04:21.766Z,100603.08
2022-07-26T20:06:50.285Z,100603.10
2022-07-26T20:09:18.005Z,100601.70
2022-07-26T20:11:50.967Z,100607.20
2022-07-26T20:14:20.047Z,100608.80
2022-07-26T20:16:55.642Z,100608.09
2022-07-26T20:19:24.805Z,100606.85
2022-07-26T20:21:52.637Z,100606.48
2022-07-26T20:24:21.690Z,100606.98
2022-07-26T20:26:49.356Z,100604.70
2022-07-26T20:29:18.725Z,100604.70
2022-07-26T20:31:46.449Z,100612.69
2022-07-26T20:34:14.205Z,100618.33
2022-07-26T20:36:42.020Z,100619.39
2022-07-26T20:39:10.104Z,100620.98
2022-07-26T20:41:38.266Z,100621.69
2022-07-26T20:44:07.054Z,100619.39
2022-07-26T20:46:40.203Z,100624.53
2022-07-26T20:49:08.932Z,100626.33
2022-07-26T20:51:37.835Z,100623.51
2022-07-26T20:54:06.539Z,100628.27
2022-07-26T20:56:34.555Z,100631.82
2022-07-26T20:59:03.071Z,100634.47
2022-07-26T21:01:32.048Z,100634.27
2022-07-26T21:04:00.033Z,100634.09
2022-07-26T21:06:29.161Z,100637.10
2022-07-26T21:08:58.001Z,100639.05
2022-07-26T21:11:26.244Z,100640.27
2022-07-26T21:13:54.614Z,100644.52
2022-07-26T21:16:22.636Z,100646.64
2022-07-26T21:18:52.639Z,100651.23
2022-07-26T21:21:21.881Z,100652.83
2022-07-26T21:23:50.026Z,100661.13
2022-07-26T21:26:17.895Z,100659.54
2022-07-26T21:28:45.898Z,100662.02
2022-07-26T21:31:13.730Z,100669.08
2022-07-26T21:33:41.638Z,100670.14
2022-07-26T21:36:09.347Z,100672.42
2022-07-26T21:38:37.015Z,100673.48
2022-07-26T21:41:04.782Z,100677.37
2022-07-26T21:43:32.867Z,100685.50
2022-07-26T21:46:00.943Z,100684.79
2022-07-26T21:48:30.104Z,100683.89
2022-07-26T21:50:57.850Z,100680.36
2022-07-26T21:53:25.481Z,100683.54
2022-07-26T21:55:53.241Z,100681.06
2022-07-26T21:58:21.092Z,100682.12
2022-07-26T22:00:48.792Z,100684.23
2022-07-26T22:03:16.740Z,100681.77
2022-07-26T22:05:45.374Z,100684.92
2022-07-26T22:08:15.461Z,100685.63
2022-07-26T22:15:21.196Z,100691.45
2022-07-26T22:17:49.269Z,100696.02
2022-07-26T22:20:17.107Z,100700.43
2022-07-26T22:22:44.872Z,100697.42
2022-07-26T22:25:12.807Z,100697.95
2022-07-26T22:27:40.704Z,100692.66
2022-07-26T22:30:08.967Z,100693.38
2022-07-26T22:32:36.801Z,100694.94
2022-07-26T22:35:05.108Z,100698.85
2022-07-26T22:37:32.854Z,100701.48
2022-07-26T22:40:00.732Z,100706.42
2022-07-26T22:42:28.482Z,100703.75
2022-07-26T22:44:56.249Z,100704.44
2022-07-26T22:47:24.225Z,100706.17
2022-07-26T22:52:38.107Z,100706.85
2022-07-26T22:55:06.607Z,100710.52
2022-07-26T22:57:34.332Z,100707.16
2022-07-26T23:00:02.344Z,100709.30
2022-07-26T23:02:30.256Z,100706.30
2022-07-26T23:04:57.991Z,100708.25
2022-07-26T23:07:25.774Z,100704.35
2022-07-26T23:09:53.536Z,100704.52
2022-07-26T23:12:21.713Z,100706.13
2022-07-26T23:14:49.786Z,100703.66
2022-07-26T23:17:17.654Z,100705.42
2022-07-26T23:19:45.892Z,100705.91
2022-07-26T23:22:13.739Z,100709.45
2022-07-26T23:24:43.562Z,100711.73
2022-07-26T23:27:14.257Z,100714.34
2022-07-26T23:29:44.583Z,100721.91
2022-07-26T23:32:13.963Z,100727.55
2022-07-26T23:34:41.775Z,100729.66
2022-07-26T23:37:09.805Z,100734.95
2022-07-26T23:39:37.613Z,100734.58
2022-07-26T23:42:07.335Z,100740.20
2022-07-26T23:44:35.040Z,100736.83
2022-07-26T23:47:02.882Z,100737.35
2022-07-26T23:49:30.966Z,100736.46
2022-07-26T23:51:58.875Z,100734.00
2022-07-26T23:54:26.584Z,100735.05
2022-07-26T23:56:54.286Z,100734.88
2022-07-26T23:59:22.096Z,100733.09
